sensor_id;sensor_type;location;lat;lon;timestamp;P1;durP1;ratioP1;P2;durP2;ratioP2
76729;SDS011;65653;53.106;18.046;2024-03-25T00:00:48;10.10;;;6.20;;
76729;SDS011;65653;53.106;18.046;2024-03-25T00:03:34;6.50;;;3.70;;
76729;SDS011;65653;53.106;18.046;2024-03-25T00:06:01;6.50;;;4.10;;
76729;SDS011;65653;53.106;18.046;2024-03-25T00:08:27;7.80;;;4.30;;
76729;SDS011;65653;53.106;18.046;2024-03-25T00:10:53;8.10;;;5.10;;
76729;SDS011;65653;53.106;18.046;2024-03-25T00:13:21;8.70;;;5.10;;
76729;SDS011;65653;53.106;18.046;2024-03-25T00:15:47;7.10;;;4.40;;
76729;SDS011;65653;53.106;18.046;2024-03-25T00:18:14;9.10;;;5.10;;
76729;SDS011;65653;53.106;18.046;2024-03-25T00:20:40;8.30;;;5.20;;
76729;SDS011;65653;53.106;18.046;2024-03-25T00:23:07;8.20;;;4.60;;
76729;SDS011;65653;53.106;18.046;2024-03-25T00:25:33;7.40;;;5.00;;
76729;SDS011;65653;53.106;18.046;2024-03-25T00:28:00;9.60;;;6.10;;
76729;SDS011;65653;53.106;18.046;2024-03-25T00:30:26;7.70;;;4.80;;
76729;SDS011;65653;53.106;18.046;2024-03-25T00:32:53;11.90;;;6.10;;
76729;SDS011;65653;53.106;18.046;2024-03-25T00:35:19;8.50;;;5.00;;
76729;SDS011;65653;53.106;18.046;2024-03-25T00:37:45;8.40;;;4.70;;
76729;SDS011;65653;53.106;18.046;2024-03-25T00:40:12;6.80;;;4.10;;
76729;SDS011;65653;53.106;18.046;2024-03-25T00:42:38;9.20;;;4.90;;
76729;SDS011;65653;53.106;18.046;2024-03-25T00:45:05;8.50;;;5.30;;
76729;SDS011;65653;53.106;18.046;2024-03-25T00:47:32;8.70;;;4.70;;
76729;SDS011;65653;53.106;18.046;2024-03-25T00:49:58;8.00;;;4.90;;
76729;SDS011;65653;53.106;18.046;2024-03-25T00:52:25;8.70;;;4.80;;
76729;SDS011;65653;53.106;18.046;2024-03-25T00:54:51;10.40;;;5.50;;
76729;SDS011;65653;53.106;18.046;2024-03-25T00:57:18;10.10;;;5.20;;
76729;SDS011;65653;53.106;18.046;2024-03-25T00:59:44;11.90;;;6.20;;
76729;SDS011;65653;53.106;18.046;2024-03-25T01:02:11;8.80;;;4.90;;
76729;SDS011;65653;53.106;18.046;2024-03-25T01:04:37;9.20;;;5.30;;
76729;SDS011;65653;53.106;18.046;2024-03-25T01:07:04;12.10;;;6.50;;
76729;SDS011;65653;53.106;18.046;2024-03-25T01:09:30;11.10;;;6.20;;
76729;SDS011;65653;53.106;18.046;2024-03-25T01:11:58;13.00;;;6.40;;
76729;SDS011;65653;53.106;18.046;2024-03-25T01:14:24;8.40;;;5.20;;
76729;SDS011;65653;53.106;18.046;2024-03-25T01:16:50;9.40;;;5.40;;
76729;SDS011;65653;53.106;18.046;2024-03-25T01:19:17;11.70;;;6.30;;
76729;SDS011;65653;53.106;18.046;2024-03-25T01:21:43;12.30;;;6.50;;
76729;SDS011;65653;53.106;18.046;2024-03-25T01:24:10;11.30;;;6.50;;
76729;SDS011;65653;53.106;18.046;2024-03-25T01:26:36;13.00;;;5.80;;
76729;SDS011;65653;53.106;18.046;2024-03-25T01:29:03;12.60;;;7.50;;
76729;SDS011;65653;53.106;18.046;2024-03-25T01:31:29;13.40;;;7.70;;
76729;SDS011;65653;53.106;18.046;2024-03-25T01:33:55;9.30;;;6.00;;
76729;SDS011;65653;53.106;18.046;2024-03-25T01:36:22;11.60;;;6.30;;
76729;SDS011;65653;53.106;18.046;2024-03-25T01:38:48;12.70;;;6.90;;
76729;SDS011;65653;53.106;18.046;2024-03-25T01:41:19;12.00;;;5.60;;
76729;SDS011;65653;53.106;18.046;2024-03-25T01:43:48;9.20;;;5.60;;
76729;SDS011;65653;53.106;18.046;2024-03-25T01:46:16;13.40;;;7.40;;
76729;SDS011;65653;53.106;18.046;2024-03-25T01:48:44;12.30;;;6.80;;
76729;SDS011;65653;53.106;18.046;2024-03-25T01:51:11;11.60;;;6.30;;
76729;SDS011;65653;53.106;18.046;2024-03-25T01:53:40;13.00;;;6.90;;
76729;SDS011;65653;53.106;18.046;2024-03-25T01:56:08;13.60;;;6.40;;
76729;SDS011;65653;53.106;18.046;2024-03-25T01:58:38;12.20;;;6.70;;
76729;SDS011;65653;53.106;18.046;2024-03-25T02:01:05;9.90;;;5.70;;
76729;SDS011;65653;53.106;18.046;2024-03-25T02:03:32;12.50;;;6.60;;
76729;SDS011;65653;53.106;18.046;2024-03-25T02:05:59;12.00;;;6.50;;
76729;SDS011;65653;53.106;18.046;2024-03-25T02:08:29;9.50;;;5.80;;
76729;SDS011;65653;53.106;18.046;2024-03-25T02:10:57;9.20;;;5.50;;
76729;SDS011;65653;53.106;18.046;2024-03-25T02:13:24;11.10;;;6.30;;
76729;SDS011;65653;53.106;18.046;2024-03-25T02:15:51;12.80;;;6.50;;
76729;SDS011;65653;53.106;18.046;2024-03-25T02:18:19;12.00;;;6.10;;
76729;SDS011;65653;53.106;18.046;2024-03-25T02:20:45;11.00;;;6.40;;
76729;SDS011;65653;53.106;18.046;2024-03-25T02:23:12;12.60;;;6.40;;
76729;SDS011;65653;53.106;18.046;2024-03-25T02:25:40;14.00;;;6.50;;
76729;SDS011;65653;53.106;18.046;2024-03-25T02:28:08;13.80;;;6.00;;
76729;SDS011;65653;53.106;18.046;2024-03-25T02:30:35;13.80;;;6.80;;
76729;SDS011;65653;53.106;18.046;2024-03-25T02:33:04;15.30;;;6.60;;
76729;SDS011;65653;53.106;18.046;2024-03-25T02:35:31;11.30;;;6.00;;
76729;SDS011;65653;53.106;18.046;2024-03-25T02:37:57;14.30;;;7.50;;
76729;SDS011;65653;53.106;18.046;2024-03-25T02:40:24;13.30;;;6.90;;
76729;SDS011;65653;53.106;18.046;2024-03-25T02:42:52;10.00;;;5.90;;
76729;SDS011;65653;53.106;18.046;2024-03-25T02:45:19;14.40;;;7.50;;
76729;SDS011;65653;53.106;18.046;2024-03-25T02:47:45;10.70;;;6.60;;
76729;SDS011;65653;53.106;18.046;2024-03-25T02:50:12;13.60;;;6.90;;
76729;SDS011;65653;53.106;18.046;2024-03-25T02:52:39;10.50;;;5.80;;
76729;SDS011;65653;53.106;18.046;2024-03-25T02:55:05;13.20;;;7.40;;
76729;SDS011;65653;53.106;18.046;2024-03-25T02:57:32;15.70;;;7.60;;
76729;SDS011;65653;53.106;18.046;2024-03-25T02:59:58;14.50;;;8.50;;
76729;SDS011;65653;53.106;18.046;2024-03-25T03:02:25;13.80;;;7.70;;
76729;SDS011;65653;53.106;18.046;2024-03-25T03:04:51;13.10;;;7.10;;
76729;SDS011;65653;53.106;18.046;2024-03-25T03:07:18;12.80;;;6.90;;
76729;SDS011;65653;53.106;18.046;2024-03-25T03:09:44;14.40;;;7.80;;
76729;SDS011;65653;53.106;18.046;2024-03-25T03:12:10;12.70;;;7.20;;
76729;SDS011;65653;53.106;18.046;2024-03-25T03:14:37;15.40;;;7.20;;
76729;SDS011;65653;53.106;18.046;2024-03-25T03:17:03;13.40;;;7.00;;
76729;SDS011;65653;53.106;18.046;2024-03-25T03:19:31;12.10;;;7.10;;
76729;SDS011;65653;53.106;18.046;2024-03-25T03:21:57;15.70;;;8.00;;
76729;SDS011;65653;53.106;18.046;2024-03-25T03:24:24;15.20;;;8.10;;
76729;SDS011;65653;53.106;18.046;2024-03-25T03:26:50;16.20;;;7.40;;
76729;SDS011;65653;53.106;18.046;2024-03-25T03:29:17;14.20;;;7.80;;
76729;SDS011;65653;53.106;18.046;2024-03-25T03:31:44;14.80;;;8.00;;
76729;SDS011;65653;53.106;18.046;2024-03-25T03:34:10;16.50;;;8.30;;
76729;SDS011;65653;53.106;18.046;2024-03-25T03:36:37;17.60;;;9.70;;
76729;SDS011;65653;53.106;18.046;2024-03-25T03:39:03;21.00;;;11.10;;
76729;SDS011;65653;53.106;18.046;2024-03-25T03:41:29;22.30;;;11.10;;
76729;SDS011;65653;53.106;18.046;2024-03-25T03:43:56;20.70;;;10.00;;
76729;SDS011;65653;53.106;18.046;2024-03-25T03:46:22;23.10;;;10.90;;
76729;SDS011;65653;53.106;18.046;2024-03-25T03:48:48;27.90;;;11.30;;
76729;SDS011;65653;53.106;18.046;2024-03-25T03:51:15;24.00;;;11.00;;
76729;SDS011;65653;53.106;18.046;2024-03-25T03:53:42;29.50;;;12.70;;
76729;SDS011;65653;53.106;18.046;2024-03-25T03:56:08;26.60;;;12.60;;
76729;SDS011;65653;53.106;18.046;2024-03-25T03:58:35;26.10;;;11.90;;
76729;SDS011;65653;53.106;18.046;2024-03-25T04:01:01;20.60;;;10.00;;
76729;SDS011;65653;53.106;18.046;2024-03-25T04:03:30;15.90;;;8.30;;
76729;SDS011;65653;53.106;18.046;2024-03-25T04:05:57;13.70;;;7.30;;
76729;SDS011;65653;53.106;18.046;2024-03-25T04:08:23;14.30;;;7.80;;
76729;SDS011;65653;53.106;18.046;2024-03-25T04:10:49;15.80;;;8.50;;
76729;SDS011;65653;53.106;18.046;2024-03-25T04:13:16;15.50;;;8.10;;
76729;SDS011;65653;53.106;18.046;2024-03-25T04:15:42;12.90;;;7.30;;
76729;SDS011;65653;53.106;18.046;2024-03-25T04:18:09;13.80;;;8.00;;
76729;SDS011;65653;53.106;18.046;2024-03-25T04:20:36;14.70;;;7.50;;
76729;SDS011;65653;53.106;18.046;2024-03-25T04:23:03;14.40;;;7.40;;
76729;SDS011;65653;53.106;18.046;2024-03-25T04:25:30;13.30;;;7.20;;
76729;SDS011;65653;53.106;18.046;2024-03-25T04:27:56;15.50;;;7.60;;
76729;SDS011;65653;53.106;18.046;2024-03-25T04:30:23;12.20;;;6.80;;
76729;SDS011;65653;53.106;18.046;2024-03-25T04:32:49;11.20;;;6.80;;
76729;SDS011;65653;53.106;18.046;2024-03-25T04:35:15;13.70;;;7.80;;
76729;SDS011;65653;53.106;18.046;2024-03-25T04:37:42;12.80;;;7.20;;
76729;SDS011;65653;53.106;18.046;2024-03-25T04:40:09;15.10;;;8.40;;
76729;SDS011;65653;53.106;18.046;2024-03-25T04:42:36;12.10;;;7.70;;
76729;SDS011;65653;53.106;18.046;2024-03-25T04:45:02;15.20;;;8.20;;
76729;SDS011;65653;53.106;18.046;2024-03-25T04:47:29;15.10;;;7.80;;
76729;SDS011;65653;53.106;18.046;2024-03-25T04:49:55;13.80;;;7.10;;
76729;SDS011;65653;53.106;18.046;2024-03-25T04:52:21;15.60;;;8.60;;
76729;SDS011;65653;53.106;18.046;2024-03-25T04:54:50;15.70;;;7.80;;
76729;SDS011;65653;53.106;18.046;2024-03-25T04:57:16;15.20;;;8.20;;
76729;SDS011;65653;53.106;18.046;2024-03-25T04:59:43;17.20;;;7.70;;
76729;SDS011;65653;53.106;18.046;2024-03-25T05:02:09;13.60;;;7.90;;
76729;SDS011;65653;53.106;18.046;2024-03-25T05:04:35;12.50;;;7.30;;
76729;SDS011;65653;53.106;18.046;2024-03-25T05:07:02;12.60;;;7.40;;
76729;SDS011;65653;53.106;18.046;2024-03-25T05:09:28;12.10;;;6.90;;
76729;SDS011;65653;53.106;18.046;2024-03-25T05:11:54;13.10;;;7.80;;
76729;SDS011;65653;53.106;18.046;2024-03-25T05:14:21;14.90;;;7.60;;
76729;SDS011;65653;53.106;18.046;2024-03-25T05:16:47;11.80;;;7.10;;
76729;SDS011;65653;53.106;18.046;2024-03-25T05:19:15;16.10;;;8.90;;
76729;SDS011;65653;53.106;18.046;2024-03-25T05:21:41;13.20;;;8.10;;
76729;SDS011;65653;53.106;18.046;2024-03-25T05:24:08;11.50;;;7.00;;
76729;SDS011;65653;53.106;18.046;2024-03-25T05:26:34;13.90;;;7.50;;
76729;SDS011;65653;53.106;18.046;2024-03-25T05:29:00;15.90;;;8.10;;
76729;SDS011;65653;53.106;18.046;2024-03-25T05:31:27;14.10;;;7.60;;
76729;SDS011;65653;53.106;18.046;2024-03-25T05:33:53;13.70;;;7.80;;
76729;SDS011;65653;53.106;18.046;2024-03-25T05:36:20;14.60;;;7.30;;
76729;SDS011;65653;53.106;18.046;2024-03-25T05:38:46;14.70;;;8.30;;
76729;SDS011;65653;53.106;18.046;2024-03-25T05:41:12;13.10;;;7.00;;
76729;SDS011;65653;53.106;18.046;2024-03-25T05:43:39;16.40;;;8.30;;
76729;SDS011;65653;53.106;18.046;2024-03-25T05:46:05;15.10;;;8.40;;
76729;SDS011;65653;53.106;18.046;2024-03-25T05:48:33;15.40;;;8.00;;
76729;SDS011;65653;53.106;18.046;2024-03-25T05:51:00;15.60;;;8.80;;
76729;SDS011;65653;53.106;18.046;2024-03-25T05:53:27;12.50;;;7.50;;
76729;SDS011;65653;53.106;18.046;2024-03-25T05:55:54;12.80;;;7.30;;
76729;SDS011;65653;53.106;18.046;2024-03-25T05:58:21;16.90;;;10.10;;
76729;SDS011;65653;53.106;18.046;2024-03-25T06:00:48;18.20;;;9.60;;
76729;SDS011;65653;53.106;18.046;2024-03-25T06:03:15;14.00;;;8.20;;
76729;SDS011;65653;53.106;18.046;2024-03-25T06:05:44;17.90;;;9.90;;
76729;SDS011;65653;53.106;18.046;2024-03-25T06:08:10;17.10;;;9.70;;
76729;SDS011;65653;53.106;18.046;2024-03-25T06:10:46;18.00;;;9.30;;
76729;SDS011;65653;53.106;18.046;2024-03-25T06:13:12;15.70;;;9.10;;
76729;SDS011;65653;53.106;18.046;2024-03-25T06:15:39;15.00;;;8.10;;
76729;SDS011;65653;53.106;18.046;2024-03-25T06:18:05;14.90;;;8.00;;
76729;SDS011;65653;53.106;18.046;2024-03-25T06:20:31;13.50;;;8.10;;
76729;SDS011;65653;53.106;18.046;2024-03-25T06:22:58;16.90;;;9.30;;
76729;SDS011;65653;53.106;18.046;2024-03-25T06:25:24;14.40;;;9.00;;
76729;SDS011;65653;53.106;18.046;2024-03-25T06:27:50;16.50;;;9.90;;
76729;SDS011;65653;53.106;18.046;2024-03-25T06:30:17;15.40;;;9.40;;
76729;SDS011;65653;53.106;18.046;2024-03-25T06:33:02;11.80;;;7.00;;
76729;SDS011;65653;53.106;18.046;2024-03-25T06:35:47;15.00;;;7.60;;
76729;SDS011;65653;53.106;18.046;2024-03-25T06:38:13;16.50;;;9.60;;
76729;SDS011;65653;53.106;18.046;2024-03-25T06:40:40;14.20;;;8.20;;
76729;SDS011;65653;53.106;18.046;2024-03-25T06:43:06;16.00;;;9.60;;
76729;SDS011;65653;53.106;18.046;2024-03-25T06:45:33;13.80;;;8.80;;
76729;SDS011;65653;53.106;18.046;2024-03-25T06:47:59;14.80;;;8.60;;
76729;SDS011;65653;53.106;18.046;2024-03-25T06:50:26;12.80;;;8.60;;
76729;SDS011;65653;53.106;18.046;2024-03-25T06:52:52;14.80;;;8.50;;
76729;SDS011;65653;53.106;18.046;2024-03-25T06:55:18;15.20;;;8.50;;
76729;SDS011;65653;53.106;18.046;2024-03-25T06:57:48;10.60;;;6.70;;
76729;SDS011;65653;53.106;18.046;2024-03-25T07:00:15;13.30;;;8.20;;
76729;SDS011;65653;53.106;18.046;2024-03-25T07:02:42;13.90;;;8.60;;
76729;SDS011;65653;53.106;18.046;2024-03-25T07:05:08;15.60;;;8.30;;
76729;SDS011;65653;53.106;18.046;2024-03-25T07:07:35;14.30;;;8.50;;
76729;SDS011;65653;53.106;18.046;2024-03-25T07:10:05;13.40;;;8.40;;
76729;SDS011;65653;53.106;18.046;2024-03-25T07:12:31;12.60;;;8.30;;
76729;SDS011;65653;53.106;18.046;2024-03-25T07:14:58;12.40;;;7.10;;
76729;SDS011;65653;53.106;18.046;2024-03-25T07:17:24;15.80;;;9.40;;
76729;SDS011;65653;53.106;18.046;2024-03-25T07:19:52;13.80;;;8.20;;
76729;SDS011;65653;53.106;18.046;2024-03-25T07:22:18;12.50;;;8.10;;
76729;SDS011;65653;53.106;18.046;2024-03-25T07:24:44;40.90;;;21.60;;
76729;SDS011;65653;53.106;18.046;2024-03-25T07:27:11;17.10;;;10.80;;
76729;SDS011;65653;53.106;18.046;2024-03-25T07:29:37;11.30;;;6.80;;
76729;SDS011;65653;53.106;18.046;2024-03-25T07:32:04;10.30;;;6.30;;
76729;SDS011;65653;53.106;18.046;2024-03-25T07:34:31;9.60;;;5.40;;
76729;SDS011;65653;53.106;18.046;2024-03-25T07:36:57;5.10;;;3.70;;
76729;SDS011;65653;53.106;18.046;2024-03-25T07:39:24;6.40;;;4.60;;
76729;SDS011;65653;53.106;18.046;2024-03-25T07:41:50;8.10;;;5.50;;
76729;SDS011;65653;53.106;18.046;2024-03-25T07:44:17;7.20;;;5.10;;
76729;SDS011;65653;53.106;18.046;2024-03-25T07:46:43;5.90;;;4.30;;
76729;SDS011;65653;53.106;18.046;2024-03-25T07:49:09;6.10;;;3.70;;
76729;SDS011;65653;53.106;18.046;2024-03-25T07:51:36;6.10;;;4.20;;
76729;SDS011;65653;53.106;18.046;2024-03-25T07:54:05;3.70;;;2.90;;
76729;SDS011;65653;53.106;18.046;2024-03-25T07:56:32;3.80;;;3.10;;
76729;SDS011;65653;53.106;18.046;2024-03-25T07:58:58;4.00;;;3.00;;
76729;SDS011;65653;53.106;18.046;2024-03-25T08:01:27;4.30;;;3.50;;
76729;SDS011;65653;53.106;18.046;2024-03-25T08:03:55;3.80;;;3.20;;
76729;SDS011;65653;53.106;18.046;2024-03-25T08:06:21;3.30;;;2.40;;
76729;SDS011;65653;53.106;18.046;2024-03-25T08:08:47;3.60;;;2.70;;
76729;SDS011;65653;53.106;18.046;2024-03-25T08:11:14;4.20;;;2.20;;
76729;SDS011;65653;53.106;18.046;2024-03-25T08:13:41;2.20;;;1.90;;
76729;SDS011;65653;53.106;18.046;2024-03-25T08:16:07;2.00;;;1.50;;
76729;SDS011;65653;53.106;18.046;2024-03-25T08:18:34;2.00;;;1.80;;
76729;SDS011;65653;53.106;18.046;2024-03-25T08:21:00;2.20;;;1.70;;
76729;SDS011;65653;53.106;18.046;2024-03-25T08:23:26;2.70;;;2.40;;
76729;SDS011;65653;53.106;18.046;2024-03-25T08:25:53;3.00;;;2.40;;
76729;SDS011;65653;53.106;18.046;2024-03-25T08:28:19;2.70;;;2.00;;
76729;SDS011;65653;53.106;18.046;2024-03-25T08:30:46;2.60;;;2.30;;
76729;SDS011;65653;53.106;18.046;2024-03-25T08:33:12;2.50;;;2.20;;
76729;SDS011;65653;53.106;18.046;2024-03-25T08:35:39;3.10;;;2.50;;
76729;SDS011;65653;53.106;18.046;2024-03-25T08:38:05;3.30;;;2.60;;
76729;SDS011;65653;53.106;18.046;2024-03-25T08:40:31;3.30;;;1.90;;
76729;SDS011;65653;53.106;18.046;2024-03-25T08:42:58;4.10;;;2.60;;
76729;SDS011;65653;53.106;18.046;2024-03-25T08:45:25;3.00;;;2.30;;
76729;SDS011;65653;53.106;18.046;2024-03-25T08:47:52;3.10;;;2.80;;
76729;SDS011;65653;53.106;18.046;2024-03-25T08:50:18;2.60;;;2.20;;
76729;SDS011;65653;53.106;18.046;2024-03-25T08:52:44;3.30;;;3.00;;
76729;SDS011;65653;53.106;18.046;2024-03-25T08:55:11;3.40;;;2.70;;
76729;SDS011;65653;53.106;18.046;2024-03-25T08:57:38;3.20;;;2.60;;
76729;SDS011;65653;53.106;18.046;2024-03-25T09:00:05;2.40;;;2.20;;
76729;SDS011;65653;53.106;18.046;2024-03-25T09:02:36;2.30;;;2.10;;
76729;SDS011;65653;53.106;18.046;2024-03-25T09:05:03;3.30;;;2.80;;
76729;SDS011;65653;53.106;18.046;2024-03-25T09:07:32;4.70;;;2.50;;
76729;SDS011;65653;53.106;18.046;2024-03-25T09:09:59;4.20;;;3.50;;
76729;SDS011;65653;53.106;18.046;2024-03-25T09:12:44;4.60;;;3.70;;
76729;SDS011;65653;53.106;18.046;2024-03-25T09:15:10;4.60;;;2.80;;
76729;SDS011;65653;53.106;18.046;2024-03-25T09:17:37;4.50;;;3.20;;
76729;SDS011;65653;53.106;18.046;2024-03-25T09:20:04;5.80;;;3.80;;
76729;SDS011;65653;53.106;18.046;2024-03-25T09:22:42;5.10;;;3.50;;
76729;SDS011;65653;53.106;18.046;2024-03-25T09:25:10;5.50;;;3.30;;
76729;SDS011;65653;53.106;18.046;2024-03-25T09:27:37;4.80;;;3.50;;
76729;SDS011;65653;53.106;18.046;2024-03-25T09:30:04;4.40;;;3.00;;
76729;SDS011;65653;53.106;18.046;2024-03-25T09:32:31;4.70;;;3.80;;
76729;SDS011;65653;53.106;18.046;2024-03-25T09:34:57;4.10;;;3.50;;
76729;SDS011;65653;53.106;18.046;2024-03-25T09:37:24;4.20;;;3.60;;
76729;SDS011;65653;53.106;18.046;2024-03-25T09:39:50;5.40;;;3.80;;
76729;SDS011;65653;53.106;18.046;2024-03-25T09:42:18;5.80;;;4.30;;
76729;SDS011;65653;53.106;18.046;2024-03-25T09:44:55;6.20;;;3.90;;
76729;SDS011;65653;53.106;18.046;2024-03-25T09:47:22;5.50;;;4.40;;
76729;SDS011;65653;53.106;18.046;2024-03-25T09:49:49;4.50;;;3.30;;
76729;SDS011;65653;53.106;18.046;2024-03-25T09:52:21;5.50;;;4.30;;
76729;SDS011;65653;53.106;18.046;2024-03-25T09:54:48;4.60;;;3.30;;
76729;SDS011;65653;53.106;18.046;2024-03-25T09:57:15;6.10;;;3.70;;
76729;SDS011;65653;53.106;18.046;2024-03-25T09:59:43;6.90;;;4.70;;
76729;SDS011;65653;53.106;18.046;2024-03-25T10:02:09;12.30;;;6.50;;
76729;SDS011;65653;53.106;18.046;2024-03-25T10:04:39;7.10;;;5.40;;
76729;SDS011;65653;53.106;18.046;2024-03-25T10:07:11;5.50;;;3.80;;
76729;SDS011;65653;53.106;18.046;2024-03-25T10:09:37;7.00;;;4.50;;
76729;SDS011;65653;53.106;18.046;2024-03-25T10:12:04;6.70;;;3.80;;
76729;SDS011;65653;53.106;18.046;2024-03-25T10:14:30;7.50;;;4.80;;
76729;SDS011;65653;53.106;18.046;2024-03-25T10:16:56;6.40;;;4.60;;
76729;SDS011;65653;53.106;18.046;2024-03-25T10:19:23;6.30;;;4.50;;
76729;SDS011;65653;53.106;18.046;2024-03-25T10:22:00;8.50;;;5.30;;
76729;SDS011;65653;53.106;18.046;2024-03-25T10:24:36;6.60;;;5.30;;
76729;SDS011;65653;53.106;18.046;2024-03-25T10:27:03;8.30;;;6.10;;
76729;SDS011;65653;53.106;18.046;2024-03-25T10:29:30;5.60;;;4.50;;
76729;SDS011;65653;53.106;18.046;2024-03-25T10:32:00;5.00;;;3.50;;
76729;SDS011;65653;53.106;18.046;2024-03-25T10:34:27;3.80;;;3.30;;
76729;SDS011;65653;53.106;18.046;2024-03-25T10:36:56;4.10;;;3.30;;
76729;SDS011;65653;53.106;18.046;2024-03-25T10:39:25;2.90;;;2.60;;
76729;SDS011;65653;53.106;18.046;2024-03-25T10:41:55;2.70;;;2.50;;
76729;SDS011;65653;53.106;18.046;2024-03-25T10:44:25;3.60;;;2.80;;
76729;SDS011;65653;53.106;18.046;2024-03-25T10:46:59;2.60;;;2.30;;
76729;SDS011;65653;53.106;18.046;2024-03-25T10:49:43;2.40;;;2.20;;
76729;SDS011;65653;53.106;18.046;2024-03-25T10:52:24;2.40;;;2.20;;
76729;SDS011;65653;53.106;18.046;2024-03-25T10:54:52;3.00;;;2.70;;
76729;SDS011;65653;53.106;18.046;2024-03-25T10:57:23;2.90;;;2.60;;
76729;SDS011;65653;53.106;18.046;2024-03-25T10:59:50;3.20;;;2.80;;
76729;SDS011;65653;53.106;18.046;2024-03-25T11:02:18;3.10;;;2.80;;
76729;SDS011;65653;53.106;18.046;2024-03-25T11:04:45;4.30;;;2.80;;
76729;SDS011;65653;53.106;18.046;2024-03-25T11:07:14;2.40;;;2.20;;
76729;SDS011;65653;53.106;18.046;2024-03-25T11:09:42;1.80;;;1.50;;
76729;SDS011;65653;53.106;18.046;2024-03-25T11:12:12;2.00;;;1.10;;
76729;SDS011;65653;53.106;18.046;2024-03-25T11:14:39;1.30;;;1.20;;
76729;SDS011;65653;53.106;18.046;2024-03-25T11:17:15;1.30;;;1.20;;
76729;SDS011;65653;53.106;18.046;2024-03-25T11:19:43;1.20;;;1.10;;
76729;SDS011;65653;53.106;18.046;2024-03-25T11:22:10;1.20;;;1.00;;
76729;SDS011;65653;53.106;18.046;2024-03-25T11:24:37;1.60;;;1.10;;
76729;SDS011;65653;53.106;18.046;2024-03-25T11:27:07;1.70;;;1.50;;
76729;SDS011;65653;53.106;18.046;2024-03-25T11:29:34;1.70;;;1.30;;
76729;SDS011;65653;53.106;18.046;2024-03-25T11:32:04;1.20;;;1.10;;
76729;SDS011;65653;53.106;18.046;2024-03-25T11:34:31;1.30;;;1.20;;
76729;SDS011;65653;53.106;18.046;2024-03-25T11:36:58;5.70;;;2.70;;
76729;SDS011;65653;53.106;18.046;2024-03-25T11:39:24;3.40;;;2.60;;
76729;SDS011;65653;53.106;18.046;2024-03-25T11:41:54;3.70;;;2.20;;
76729;SDS011;65653;53.106;18.046;2024-03-25T11:44:21;2.90;;;1.90;;
76729;SDS011;65653;53.106;18.046;2024-03-25T11:46:51;3.00;;;1.60;;
76729;SDS011;65653;53.106;18.046;2024-03-25T11:49:20;1.80;;;1.10;;
76729;SDS011;65653;53.106;18.046;2024-03-25T11:51:47;2.50;;;1.10;;
76729;SDS011;65653;53.106;18.046;2024-03-25T11:54:14;1.70;;;1.00;;
76729;SDS011;65653;53.106;18.046;2024-03-25T11:56:41;1.20;;;1.00;;
76729;SDS011;65653;53.106;18.046;2024-03-25T11:59:09;0.80;;;0.80;;
76729;SDS011;65653;53.106;18.046;2024-03-25T12:01:38;1.50;;;1.10;;
76729;SDS011;65653;53.106;18.046;2024-03-25T12:04:11;1.30;;;0.70;;
76729;SDS011;65653;53.106;18.046;2024-03-25T12:06:39;1.00;;;0.80;;
76729;SDS011;65653;53.106;18.046;2024-03-25T12:09:06;0.70;;;0.60;;
76729;SDS011;65653;53.106;18.046;2024-03-25T12:11:51;1.00;;;0.80;;
76729;SDS011;65653;53.106;18.046;2024-03-25T12:14:18;1.90;;;1.20;;
76729;SDS011;65653;53.106;18.046;2024-03-25T12:16:46;2.40;;;2.00;;
76729;SDS011;65653;53.106;18.046;2024-03-25T12:19:15;2.00;;;1.30;;
76729;SDS011;65653;53.106;18.046;2024-03-25T12:21:42;1.90;;;1.40;;
76729;SDS011;65653;53.106;18.046;2024-03-25T12:24:09;2.50;;;1.50;;
76729;SDS011;65653;53.106;18.046;2024-03-25T12:26:35;2.60;;;1.10;;
76729;SDS011;65653;53.106;18.046;2024-03-25T12:29:02;3.00;;;1.50;;
76729;SDS011;65653;53.106;18.046;2024-03-25T12:31:29;2.50;;;1.70;;
76729;SDS011;65653;53.106;18.046;2024-03-25T12:33:56;2.50;;;1.30;;
76729;SDS011;65653;53.106;18.046;2024-03-25T12:36:22;1.50;;;0.90;;
76729;SDS011;65653;53.106;18.046;2024-03-25T12:38:55;1.10;;;1.00;;
76729;SDS011;65653;53.106;18.046;2024-03-25T12:43:50;1.90;;;1.50;;
76729;SDS011;65653;53.106;18.046;2024-03-25T12:46:17;1.40;;;1.30;;
76729;SDS011;65653;53.106;18.046;2024-03-25T12:48:44;1.70;;;1.50;;
76729;SDS011;65653;53.106;18.046;2024-03-25T12:51:13;2.30;;;2.10;;
76729;SDS011;65653;53.106;18.046;2024-03-25T12:53:41;2.70;;;2.20;;
76729;SDS011;65653;53.106;18.046;2024-03-25T12:56:08;3.10;;;2.70;;
76729;SDS011;65653;53.106;18.046;2024-03-25T12:58:34;3.50;;;2.80;;
76729;SDS011;65653;53.106;18.046;2024-03-25T13:01:01;6.30;;;3.10;;
76729;SDS011;65653;53.106;18.046;2024-03-25T13:03:28;4.60;;;2.90;;
76729;SDS011;65653;53.106;18.046;2024-03-25T13:05:54;6.30;;;2.90;;
76729;SDS011;65653;53.106;18.046;2024-03-25T13:08:23;3.20;;;2.20;;
76729;SDS011;65653;53.106;18.046;2024-03-25T13:10:50;2.60;;;2.40;;
76729;SDS011;65653;53.106;18.046;2024-03-25T13:13:18;2.60;;;2.10;;
76729;SDS011;65653;53.106;18.046;2024-03-25T13:15:44;2.70;;;2.00;;
76729;SDS011;65653;53.106;18.046;2024-03-25T13:18:11;1.40;;;1.30;;
76729;SDS011;65653;53.106;18.046;2024-03-25T13:20:37;1.80;;;1.40;;
76729;SDS011;65653;53.106;18.046;2024-03-25T13:23:04;1.50;;;1.40;;
76729;SDS011;65653;53.106;18.046;2024-03-25T13:25:30;1.60;;;1.40;;
76729;SDS011;65653;53.106;18.046;2024-03-25T13:27:57;2.20;;;1.50;;
76729;SDS011;65653;53.106;18.046;2024-03-25T13:30:23;1.90;;;1.70;;
76729;SDS011;65653;53.106;18.046;2024-03-25T13:32:52;3.20;;;2.50;;
76729;SDS011;65653;53.106;18.046;2024-03-25T13:35:18;2.30;;;2.00;;
76729;SDS011;65653;53.106;18.046;2024-03-25T13:37:45;2.20;;;1.70;;
76729;SDS011;65653;53.106;18.046;2024-03-25T13:40:11;4.70;;;4.20;;
76729;SDS011;65653;53.106;18.046;2024-03-25T13:42:38;4.10;;;2.90;;
76729;SDS011;65653;53.106;18.046;2024-03-25T13:45:04;2.50;;;1.80;;
76729;SDS011;65653;53.106;18.046;2024-03-25T13:47:31;1.90;;;1.80;;
76729;SDS011;65653;53.106;18.046;2024-03-25T13:50:01;1.90;;;1.80;;
76729;SDS011;65653;53.106;18.046;2024-03-25T13:52:30;1.80;;;1.40;;
76729;SDS011;65653;53.106;18.046;2024-03-25T13:54:57;2.00;;;1.90;;
76729;SDS011;65653;53.106;18.046;2024-03-25T13:57:24;2.40;;;2.20;;
76729;SDS011;65653;53.106;18.046;2024-03-25T13:59:50;3.10;;;2.70;;
76729;SDS011;65653;53.106;18.046;2024-03-25T14:02:17;2.40;;;2.20;;
76729;SDS011;65653;53.106;18.046;2024-03-25T14:04:44;2.60;;;2.10;;
76729;SDS011;65653;53.106;18.046;2024-03-25T14:07:11;2.80;;;2.50;;
76729;SDS011;65653;53.106;18.046;2024-03-25T14:09:38;16.20;;;9.40;;
76729;SDS011;65653;53.106;18.046;2024-03-25T14:12:07;4.90;;;3.00;;
76729;SDS011;65653;53.106;18.046;2024-03-25T14:14:34;3.80;;;2.70;;
76729;SDS011;65653;53.106;18.046;2024-03-25T14:17:01;3.90;;;2.80;;
76729;SDS011;65653;53.106;18.046;2024-03-25T14:19:27;3.00;;;2.50;;
76729;SDS011;65653;53.106;18.046;2024-03-25T14:21:54;3.10;;;2.20;;
76729;SDS011;65653;53.106;18.046;2024-03-25T14:24:20;2.80;;;2.20;;
76729;SDS011;65653;53.106;18.046;2024-03-25T14:26:46;2.50;;;2.10;;
76729;SDS011;65653;53.106;18.046;2024-03-25T14:29:13;2.60;;;1.80;;
76729;SDS011;65653;53.106;18.046;2024-03-25T14:31:39;3.90;;;2.50;;